createdAt,value
2019-02-02T00:01:08.203Z,98852.00
2019-02-02T00:03:37.851Z,98847.00
2019-02-02T00:06:07.535Z,98846.00
2019-02-02T00:08:37.186Z,98847.00
2019-02-02T00:11:06.930Z,98847.00
2019-02-02T00:13:36.556Z,98846.00
2019-02-02T00:16:06.725Z,98864.00
2019-02-02T00:18:36.241Z,98853.00
2019-02-02T00:21:06.648Z,98849.00
2019-02-02T00:23:36.311Z,98849.00
2019-02-02T00:26:06.307Z,98863.00
2019-02-02T00:28:36.119Z,98857.00
2019-02-02T00:31:05.941Z,98864.00
2019-02-02T00:33:35.367Z,98871.00
2019-02-02T00:36:04.997Z,98869.00
2019-02-02T00:38:34.474Z,98862.00
2019-02-02T00:41:04.168Z,98862.00
2019-02-02T00:43:34.057Z,98867.00
2019-02-02T00:46:04.041Z,98858.00
2019-02-02T00:48:33.584Z,98857.00
2019-02-02T00:51:03.087Z,98864.00
2019-02-02T00:53:32.789Z,98866.00
2019-02-02T00:56:02.425Z,98862.00
2019-02-02T00:58:32.057Z,98862.00
2019-02-02T01:01:01.678Z,98859.00
2019-02-02T01:03:31.346Z,98866.00
2019-02-02T01:06:01.172Z,98873.00
2019-02-02T01:08:30.757Z,98880.00
2019-02-02T01:11:00.289Z,98872.00
2019-02-02T01:13:29.827Z,98872.00
2019-02-02T01:15:59.317Z,98871.00
2019-02-02T01:18:28.839Z,98876.00
2019-02-02T01:20:58.457Z,98875.00
2019-02-02T01:23:27.914Z,98870.00
2019-02-02T01:25:57.326Z,98880.00
2019-02-02T01:28:26.786Z,98880.00
2019-02-02T01:30:56.379Z,98884.00
2019-02-02T01:33:25.832Z,98886.00
2019-02-02T01:35:55.437Z,98879.00
2019-02-02T01:38:24.923Z,98888.00
2019-02-02T01:40:54.373Z,98892.00
2019-02-02T01:43:23.835Z,98889.00
2019-02-02T01:45:53.380Z,98889.00
2019-02-02T01:48:22.828Z,98897.00
2019-02-02T01:50:52.437Z,98891.00
2019-02-02T01:53:22.042Z,98894.00
2019-02-02T01:55:51.455Z,98887.00
2019-02-02T01:58:20.906Z,98891.00
2019-02-02T02:00:50.434Z,98891.00
2019-02-02T02:03:19.871Z,98886.00
2019-02-02T02:05:49.400Z,98889.00
2019-02-02T02:08:18.968Z,98889.00
2019-02-02T02:10:48.571Z,98892.00
2019-02-02T02:13:18.062Z,98883.00
2019-02-02T02:15:47.658Z,98890.00
2019-02-02T02:18:17.239Z,98885.00
2019-02-02T02:20:46.666Z,98892.00
2019-02-02T02:23:16.100Z,98897.00
2019-02-02T02:25:45.631Z,98898.00
2019-02-02T02:28:15.090Z,98902.00
2019-02-02T02:30:47.276Z,98904.00
2019-02-02T02:33:15.768Z,98904.00
2019-02-02T02:35:45.340Z,98906.00
2019-02-02T02:38:14.804Z,98905.00
2019-02-02T02:40:44.286Z,98903.00
2019-02-02T02:43:13.799Z,98903.00
2019-02-02T02:45:43.252Z,98903.00
2019-02-02T02:48:12.840Z,98906.00
2019-02-02T02:50:42.259Z,98903.00
2019-02-02T02:53:11.723Z,98900.00
2019-02-02T02:55:41.255Z,98906.00
2019-02-02T02:58:10.744Z,98912.00
2019-02-02T03:00:40.186Z,98911.00
2019-02-02T03:03:09.741Z,98909.00
2019-02-02T03:05:39.199Z,98914.00
2019-02-02T03:08:08.907Z,98910.00
2019-02-02T03:10:38.487Z,98914.00
2019-02-02T03:13:08.100Z,98921.00
2019-02-02T03:15:37.553Z,98914.00
2019-02-02T03:18:07.233Z,98914.00
2019-02-02T03:20:36.675Z,98926.00
2019-02-02T03:23:06.197Z,98929.00
2019-02-02T03:25:35.673Z,98925.00
2019-02-02T03:28:05.137Z,98928.00
2019-02-02T03:30:34.734Z,98922.00
2019-02-02T03:33:04.451Z,98932.00
2019-02-02T03:35:33.884Z,98920.00
2019-02-02T03:38:03.319Z,98926.00
2019-02-02T03:40:32.798Z,98919.00
2019-02-02T03:43:02.301Z,98925.00
2019-02-02T03:45:31.801Z,98922.00
2019-02-02T03:48:01.261Z,98923.00
2019-02-02T03:50:30.852Z,98925.00
2019-02-02T03:53:00.506Z,98935.00
2019-02-02T03:55:29.959Z,98937.00
2019-02-02T03:57:59.380Z,98944.00
2019-02-02T04:00:28.932Z,98944.00
2019-02-02T04:02:58.367Z,98955.00
2019-02-02T04:05:30.270Z,98951.00
2019-02-02T04:07:59.865Z,98950.00
2019-02-02T04:10:29.381Z,98964.00
2019-02-02T04:12:58.942Z,98960.00
2019-02-02T04:15:28.470Z,98959.00
2019-02-02T04:17:57.929Z,98970.00
2019-02-02T04:20:27.619Z,98964.00
2019-02-02T04:22:57.196Z,98969.00
2019-02-02T04:25:26.822Z,98980.00
2019-02-02T04:27:56.390Z,98978.00
2019-02-02T04:30:27.745Z,98991.00
2019-02-02T04:32:57.378Z,98985.00
2019-02-02T04:35:26.955Z,98984.00
2019-02-02T04:37:56.399Z,98974.00
2019-02-02T04:40:25.937Z,98978.00
2019-02-02T04:42:55.395Z,98978.00
2019-02-02T04:45:24.922Z,98983.00
2019-02-02T04:47:54.442Z,98979.00
2019-02-02T04:50:23.947Z,98988.00
2019-02-02T04:52:53.402Z,98979.00
2019-02-02T04:55:22.939Z,98983.00
2019-02-02T04:57:52.381Z,98985.00
2019-02-02T05:00:27.240Z,98989.00
2019-02-02T05:02:56.901Z,98981.00
2019-02-02T05:05:26.575Z,98996.00
2019-02-02T05:07:56.039Z,98979.00
2019-02-02T05:10:26.651Z,98989.00
2019-02-02T05:12:56.171Z,98990.00
2019-02-02T05:15:25.629Z,98991.00
2019-02-02T05:17:55.070Z,99000.00
2019-02-02T05:20:24.485Z,99007.00
2019-02-02T05:22:53.963Z,99005.00
2019-02-02T05:25:23.559Z,99014.00
2019-02-02T05:27:53.734Z,99012.00
2019-02-02T05:30:31.846Z,99016.00
2019-02-02T05:33:01.365Z,99012.00
2019-02-02T05:35:30.813Z,99020.00
2019-02-02T05:38:00.373Z,99016.00
2019-02-02T05:40:29.918Z,99008.00
2019-02-02T05:42:59.472Z,99010.00
2019-02-02T05:45:28.943Z,99012.00
2019-02-02T05:47:58.380Z,99015.00
2019-02-02T05:50:27.847Z,99014.00
2019-02-02T05:52:57.252Z,99020.00
2019-02-02T05:55:26.693Z,99017.00
2019-02-02T05:57:56.107Z,99036.00
2019-02-02T06:00:36.745Z,99029.00
2019-02-02T06:03:06.490Z,99041.00
2019-02-02T06:05:36.059Z,99037.00
2019-02-02T06:08:05.899Z,99037.00
2019-02-02T06:10:35.328Z,99038.00
2019-02-02T06:13:04.881Z,99038.00
2019-02-02T06:15:34.338Z,99047.00
2019-02-02T06:18:05.114Z,99050.00
2019-02-02T06:20:34.580Z,99049.00
2019-02-02T06:23:04.139Z,99054.00
2019-02-02T06:25:33.591Z,99060.00
2019-02-02T06:28:03.097Z,99064.00
2019-02-02T06:30:32.697Z,99062.00
2019-02-02T06:33:02.233Z,99066.00
2019-02-02T06:35:31.677Z,99067.00
2019-02-02T06:38:01.132Z,99073.00
2019-02-02T06:40:30.659Z,99076.00
2019-02-02T06:43:00.250Z,99085.00
2019-02-02T06:45:33.308Z,99086.00
2019-02-02T06:48:04.584Z,99092.00
2019-02-02T06:50:34.176Z,99085.00
2019-02-02T06:53:04.270Z,99098.00
2019-02-02T06:55:33.801Z,99101.00
2019-02-02T06:58:03.408Z,99098.00
2019-02-02T07:00:32.826Z,99103.00
2019-02-02T07:03:02.393Z,99109.00
2019-02-02T07:05:33.956Z,99112.00
2019-02-02T07:08:03.378Z,99111.00
2019-02-02T07:10:32.891Z,99101.00
2019-02-02T07:13:02.438Z,99100.00
2019-02-02T07:15:32.824Z,99100.00
2019-02-02T07:18:02.384Z,99111.00
2019-02-02T07:20:31.902Z,99119.00
2019-02-02T07:23:01.562Z,99110.00
2019-02-02T07:25:30.973Z,99120.00
2019-02-02T07:28:00.405Z,99124.00
2019-02-02T07:30:29.992Z,99131.00
2019-02-02T07:32:59.742Z,99136.00
2019-02-02T07:35:29.299Z,99139.00
2019-02-02T07:37:58.780Z,99140.00
2019-02-02T07:40:28.210Z,99152.00
2019-02-02T07:42:57.742Z,99154.00
2019-02-02T07:45:30.838Z,99162.00
2019-02-02T07:48:00.311Z,99156.00
2019-02-02T07:50:29.819Z,99159.00
2019-02-02T07:52:59.317Z,99172.00
2019-02-02T07:55:28.823Z,99167.00
2019-02-02T07:57:58.269Z,99175.00
2019-02-02T08:00:41.396Z,99183.00
2019-02-02T08:03:08.679Z,99173.00
2019-02-02T08:05:38.292Z,99174.00
2019-02-02T08:08:08.082Z,99178.00
2019-02-02T08:10:37.663Z,99176.00
2019-02-02T08:13:07.412Z,99177.00
2019-02-02T08:15:36.945Z,99177.00
2019-02-02T08:18:07.090Z,99178.00
2019-02-02T08:20:36.656Z,99185.00
2019-02-02T08:23:06.508Z,99194.00
2019-02-02T08:25:36.385Z,99200.00
2019-02-02T08:28:07.704Z,99208.00
2019-02-02T08:30:38.058Z,99208.00
2019-02-02T08:33:07.922Z,99215.00
2019-02-02T08:35:37.603Z,99224.00
2019-02-02T08:38:07.491Z,99229.00
2019-02-02T08:40:37.005Z,99241.00
2019-02-02T08:43:06.627Z,99236.00
2019-02-02T08:45:36.214Z,99235.00
2019-02-02T08:48:05.808Z,99251.00
2019-02-02T08:50:37.219Z,99253.00
2019-02-02T08:53:07.460Z,99259.00
2019-02-02T08:55:36.957Z,99267.00
2019-02-02T08:58:06.542Z,99268.00
2019-02-02T09:00:36.628Z,99280.00
2019-02-02T09:03:06.481Z,99285.00
2019-02-02T09:05:37.783Z,99287.00
2019-02-02T09:08:07.543Z,99285.00
2019-02-02T09:10:37.058Z,99298.00
2019-02-02T09:13:06.576Z,99294.00
2019-02-02T09:15:36.256Z,99296.00
2019-02-02T09:18:06.673Z,99306.00
2019-02-02T09:20:36.259Z,99318.00
2019-02-02T09:23:06.775Z,99314.00
2019-02-02T09:25:36.354Z,99326.00
2019-02-02T09:28:05.952Z,99323.00
2019-02-02T09:30:37.410Z,99326.00
2019-02-02T09:33:07.493Z,99330.00
2019-02-02T09:35:37.080Z,99323.00
2019-02-02T09:38:07.040Z,99326.00
2019-02-02T09:40:36.581Z,99319.00
2019-02-02T09:43:06.945Z,99323.00
2019-02-02T09:45:36.542Z,99328.00
2019-02-02T09:48:06.352Z,99334.00
2019-02-02T09:50:35.912Z,99334.00
2019-02-02T09:53:05.572Z,99340.00
2019-02-02T09:55:35.273Z,99338.00
2019-02-02T09:58:09.006Z,99343.00
2019-02-02T10:00:38.563Z,99344.00
2019-02-02T10:03:08.113Z,99353.00
2019-02-02T10:05:37.613Z,99361.00
2019-02-02T10:08:07.385Z,99368.00
2019-02-02T10:10:36.936Z,99380.00
2019-02-02T10:13:07.101Z,99380.00
2019-02-02T10:15:36.785Z,99386.00
2019-02-02T10:18:06.768Z,99395.00
2019-02-02T10:20:36.232Z,99404.00
2019-02-02T10:23:06.103Z,99404.00
2019-02-02T10:25:36.008Z,99414.00
2019-02-02T10:28:06.265Z,99413.00
2019-02-02T10:30:41.354Z,99416.00
2019-02-02T10:33:11.023Z,99409.00
2019-02-02T10:35:40.595Z,99408.00
2019-02-02T10:38:10.394Z,99406.00
2019-02-02T10:40:40.044Z,99404.00
2019-02-02T10:43:09.796Z,99398.00
2019-02-02T10:45:39.475Z,99399.00
2019-02-02T10:48:09.343Z,99392.00
2019-02-02T10:50:38.924Z,99400.00
2019-02-02T10:53:08.485Z,99397.00
2019-02-02T10:55:38.141Z,99402.00
2019-02-02T10:58:08.108Z,99404.00
2019-02-02T11:00:39.998Z,99409.00
2019-02-02T11:03:09.580Z,99409.00
2019-02-02T11:05:39.402Z,99412.00
2019-02-02T11:08:09.326Z,99414.00
2019-02-02T11:10:39.299Z,99417.00
2019-02-02T11:13:08.888Z,99425.00
2019-02-02T11:15:38.431Z,99427.00
2019-02-02T11:18:08.904Z,99426.00
2019-02-02T11:20:38.901Z,99431.00
2019-02-02T11:23:08.577Z,99435.00
2019-02-02T11:25:38.278Z,99430.00
2019-02-02T11:28:08.013Z,99436.00
2019-02-02T11:30:37.575Z,99436.00
2019-02-02T11:33:07.330Z,99440.00
2019-02-02T11:35:37.038Z,99439.00
2019-02-02T11:38:06.718Z,99435.00
2019-02-02T11:40:36.828Z,99436.00
2019-02-02T11:43:06.578Z,99441.00
2019-02-02T11:45:36.224Z,99444.00
2019-02-02T11:48:05.887Z,99458.00
2019-02-02T11:50:35.579Z,99453.00
2019-02-02T11:53:05.697Z,99455.00
2019-02-02T11:55:35.243Z,99463.00
2019-02-02T11:58:04.950Z,99466.00
2019-02-02T12:00:38.609Z,99475.00
2019-02-02T12:03:08.070Z,99468.00
2019-02-02T12:05:37.935Z,99479.00
2019-02-02T12:08:07.644Z,99480.00
2019-02-02T12:10:37.417Z,99479.00
2019-02-02T12:13:07.102Z,99489.00
2019-02-02T12:15:36.814Z,99494.00
2019-02-02T12:18:06.728Z,99500.00
2019-02-02T12:20:36.329Z,99496.00
2019-02-02T12:23:06.132Z,99494.00
2019-02-02T12:25:35.860Z,99503.00
2019-02-02T12:28:09.092Z,99506.00
2019-02-02T12:30:37.626Z,99511.00
2019-02-02T12:33:07.393Z,99517.00
2019-02-02T12:35:37.150Z,99518.00
2019-02-02T12:38:07.065Z,99530.00
2019-02-02T12:40:36.883Z,99519.00
2019-02-02T12:43:06.584Z,99527.00
2019-02-02T12:45:54.557Z,99535.00
2019-02-02T12:48:24.281Z,99536.00
2019-02-02T12:50:53.864Z,99527.00
2019-02-02T12:53:23.407Z,99531.00
2019-02-02T12:55:53.132Z,99537.00
2019-02-02T12:58:22.802Z,99542.00
2019-02-02T13:00:52.334Z,99543.00
2019-02-02T13:03:21.881Z,99539.00
2019-02-02T13:05:51.382Z,99540.00
2019-02-02T13:08:20.853Z,99551.00
2019-02-02T13:10:50.372Z,99561.00
2019-02-02T13:13:19.792Z,99557.00
2019-02-02T13:15:49.250Z,99569.00
2019-02-02T13:18:18.711Z,99571.00
2019-02-02T13:20:48.192Z,99590.00
2019-02-02T13:23:17.686Z,99584.00
2019-02-02T13:25:47.217Z,99595.00
2019-02-02T13:28:16.681Z,99596.00
2019-02-02T13:30:46.168Z,99599.00
2019-02-02T13:33:15.634Z,99611.00
2019-02-02T13:35:45.303Z,99615.00
2019-02-02T13:38:14.851Z,99617.00
2019-02-02T13:40:44.317Z,99617.00
2019-02-02T13:43:13.840Z,99616.00
2019-02-02T13:45:43.347Z,99620.00
2019-02-02T13:48:12.799Z,99631.00
2019-02-02T13:50:42.300Z,99637.00
2019-02-02T13:53:11.903Z,99637.00
2019-02-02T13:55:41.354Z,99645.00
2019-02-02T13:58:10.895Z,99647.00
2019-02-02T14:00:40.523Z,99647.00
2019-02-02T14:03:10.033Z,99654.00
2019-02-02T14:05:39.623Z,99659.00
2019-02-02T14:08:09.250Z,99672.00
2019-02-02T14:10:38.902Z,99675.00
2019-02-02T14:13:08.408Z,99677.00
2019-02-02T14:15:39.381Z,99677.00
2019-02-02T14:18:09.300Z,99681.00
2019-02-02T14:20:38.747Z,99685.00
2019-02-02T14:23:08.185Z,99704.00
2019-02-02T14:25:37.635Z,99700.00
2019-02-02T14:28:07.241Z,99710.00
2019-02-02T14:30:36.765Z,99712.00
2019-02-02T14:33:13.616Z,99713.00
2019-02-02T14:35:37.646Z,99716.00
2019-02-02T14:38:07.062Z,99725.00
2019-02-02T14:40:36.519Z,99739.00
2019-02-02T14:43:06.219Z,99736.00
2019-02-02T14:45:35.684Z,99729.00
2019-02-02T14:48:05.373Z,99735.00
2019-02-02T14:50:34.820Z,99744.00
2019-02-02T14:53:04.786Z,99739.00
2019-02-02T14:55:34.353Z,99749.00
2019-02-02T14:58:04.841Z,99750.00
2019-02-02T15:00:34.459Z,99753.00
2019-02-02T15:03:04.135Z,99771.00
2019-02-02T15:05:42.504Z,99769.00
2019-02-02T15:08:05.000Z,99766.00
2019-02-02T15:10:34.463Z,99778.00
2019-02-02T15:13:04.135Z,99780.00
2019-02-02T15:15:33.722Z,99786.00
2019-02-02T15:18:03.186Z,99784.00
2019-02-02T15:20:35.660Z,99790.00
2019-02-02T15:23:05.721Z,99797.00
2019-02-02T15:25:35.430Z,99806.00
2019-02-02T15:28:05.002Z,99807.00
2019-02-02T15:30:38.614Z,99817.00
2019-02-02T15:33:08.226Z,99820.00
2019-02-02T15:35:37.806Z,99819.00
2019-02-02T15:38:07.320Z,99826.00
2019-02-02T15:40:36.789Z,99832.00
2019-02-02T15:43:06.502Z,99837.00
2019-02-02T15:45:36.082Z,99837.00
2019-02-02T15:48:05.953Z,99850.00
2019-02-02T15:50:35.387Z,99861.00
2019-02-02T15:53:04.979Z,99866.00
2019-02-02T15:55:34.459Z,99866.00
2019-02-02T15:58:04.046Z,99870.00
2019-02-02T16:00:36.828Z,99875.00
2019-02-02T16:03:06.921Z,99871.00
2019-02-02T16:05:37.052Z,99878.00
2019-02-02T16:08:10.921Z,99876.00
2019-02-02T16:10:40.532Z,99882.00
2019-02-02T16:13:10.037Z,99893.00
2019-02-02T16:15:39.472Z,99890.00
2019-02-02T16:18:09.106Z,99897.00
2019-02-02T16:20:43.995Z,99904.00
2019-02-02T16:23:13.585Z,99908.00
2019-02-02T16:25:43.217Z,99916.00
2019-02-02T16:28:13.017Z,99920.00
2019-02-02T16:30:42.532Z,99923.00
2019-02-02T16:33:12.193Z,99927.00
2019-02-02T16:35:41.810Z,99933.00
2019-02-02T16:38:11.880Z,99936.00
2019-02-02T16:40:41.488Z,99943.00
2019-02-02T16:43:11.323Z,99946.00
2019-02-02T16:45:40.900Z,99955.00
2019-02-02T16:48:10.425Z,99972.00
2019-02-02T16:50:39.907Z,99981.00
2019-02-02T16:53:09.453Z,99992.00
2019-02-02T16:55:38.905Z,100000.00
2019-02-02T16:58:08.646Z,100011.00
2019-02-02T17:00:38.950Z,100013.00
2019-02-02T17:03:08.457Z,100020.00
2019-02-02T17:05:38.088Z,100030.00
2019-02-02T17:08:07.873Z,100028.00
2019-02-02T17:10:38.044Z,100037.00
2019-02-02T17:13:08.135Z,100046.00
2019-02-02T17:15:37.736Z,100038.00
2019-02-02T17:18:07.671Z,100040.00
2019-02-02T17:20:40.439Z,100040.00
2019-02-02T17:23:10.125Z,100041.00
2019-02-02T17:25:39.822Z,100057.00
2019-02-02T17:28:09.438Z,100060.00
2019-02-02T17:30:39.036Z,100059.00
2019-02-02T17:33:12.216Z,100078.00
2019-02-02T17:35:41.829Z,100077.00
2019-02-02T17:38:11.532Z,100093.00
2019-02-02T17:40:41.001Z,100103.00
2019-02-02T17:43:10.434Z,100103.00
2019-02-02T17:45:39.970Z,100104.00
2019-02-02T17:48:09.772Z,100113.00
2019-02-02T17:50:39.669Z,100125.00
2019-02-02T17:53:10.798Z,100122.00
2019-02-02T17:55:40.280Z,100128.00
2019-02-02T17:58:09.739Z,100139.00
2019-02-02T18:00:43.565Z,100142.00
2019-02-02T18:03:13.073Z,100142.00
2019-02-02T18:05:42.588Z,100148.00
2019-02-02T18:08:12.151Z,100147.00
2019-02-02T18:10:41.716Z,100159.00
2019-02-02T18:13:11.310Z,100150.00
2019-02-02T18:15:40.854Z,100160.00
2019-02-02T18:18:10.793Z,100161.00
2019-02-02T18:20:40.242Z,100168.00
2019-02-02T18:23:09.701Z,100183.00
2019-02-02T18:25:39.206Z,100177.00
2019-02-02T18:28:08.710Z,100180.00
2019-02-02T18:30:38.261Z,100188.00
2019-02-02T18:33:07.754Z,100200.00
2019-02-02T18:35:37.301Z,100199.00
2019-02-02T18:38:06.992Z,100208.00
2019-02-02T18:40:36.509Z,100224.00
2019-02-02T18:43:06.139Z,100213.00
2019-02-02T18:45:35.677Z,100227.00
2019-02-02T18:48:05.639Z,100227.00
2019-02-02T18:50:35.182Z,100234.00
2019-02-02T18:53:04.821Z,100241.00
2019-02-02T18:55:48.538Z,100247.00
2019-02-02T18:58:17.974Z,100255.00
2019-02-02T19:00:47.510Z,100264.00
2019-02-02T19:03:16.983Z,100263.00
2019-02-02T19:05:46.476Z,100270.00
2019-02-02T19:08:15.928Z,100280.00
2019-02-02T19:10:45.483Z,100283.00
2019-02-02T19:13:15.062Z,100294.00
2019-02-02T19:15:44.489Z,100295.00
2019-02-02T19:18:14.010Z,100305.00
2019-02-02T19:20:43.464Z,100308.00
2019-02-02T19:23:24.263Z,100318.00
2019-02-02T19:25:44.127Z,100320.00
2019-02-02T19:28:13.565Z,100324.00
2019-02-02T19:30:43.017Z,100321.00
2019-02-02T19:33:12.542Z,100321.00
2019-02-02T19:35:41.980Z,100315.00
2019-02-02T19:38:11.495Z,100321.00
2019-02-02T19:40:40.981Z,100324.00
2019-02-02T19:43:10.490Z,100337.00
2019-02-02T19:45:40.020Z,100345.00
2019-02-02T19:48:09.690Z,100352.00
2019-02-02T19:50:39.171Z,100361.00
2019-02-02T19:53:08.841Z,100372.00
2019-02-02T19:55:38.238Z,100385.00
2019-02-02T19:58:07.805Z,100391.00
2019-02-02T20:00:37.402Z,100380.00
2019-02-02T20:03:06.949Z,100395.00
2019-02-02T20:05:36.638Z,100389.00
2019-02-02T20:08:06.639Z,100398.00
2019-02-02T20:10:36.217Z,100385.00
2019-02-02T20:13:06.184Z,100391.00
2019-02-02T20:15:35.654Z,100400.00
2019-02-02T20:18:10.029Z,100401.00
2019-02-02T20:20:36.523Z,100418.00
2019-02-02T20:23:06.444Z,100412.00
2019-02-02T20:25:35.889Z,100412.00
2019-02-02T20:28:05.517Z,100433.00
2019-02-02T20:30:35.204Z,100425.00
2019-02-02T20:33:05.259Z,100427.00
2019-02-02T20:35:41.973Z,100437.00
2019-02-02T20:38:06.265Z,100440.00
2019-02-02T20:40:35.723Z,100444.00
2019-02-02T20:43:05.443Z,100443.00
2019-02-02T20:45:38.305Z,100455.00
2019-02-02T20:48:07.750Z,100456.00
2019-02-02T20:50:37.317Z,100459.00
2019-02-02T20:53:07.004Z,100461.00
2019-02-02T20:55:40.949Z,100465.00
2019-02-02T20:58:10.583Z,100471.00
2019-02-02T21:00:40.683Z,100471.00
2019-02-02T21:03:10.209Z,100482.00
2019-02-02T21:05:51.623Z,100490.00
2019-02-02T21:08:11.037Z,100495.00
2019-02-02T21:10:40.495Z,100495.00
2019-02-02T21:13:10.112Z,100505.00
2019-02-02T21:15:39.565Z,100507.00
2019-02-02T21:18:11.844Z,100511.00
2019-02-02T21:20:40.456Z,100525.00
2019-02-02T21:23:09.878Z,100526.00
2019-02-02T21:25:39.332Z,100542.00
2019-02-02T21:28:08.958Z,100551.00
2019-02-02T21:30:38.576Z,100556.00
2019-02-02T21:33:08.522Z,100561.00
2019-02-02T21:35:37.793Z,100571.00
2019-02-02T21:38:07.485Z,100572.00
2019-02-02T21:40:37.058Z,100573.00
2019-02-02T21:43:07.611Z,100573.00
2019-02-02T21:45:37.520Z,100574.00
2019-02-02T21:48:07.208Z,100577.00
2019-02-02T21:50:36.705Z,100587.00
2019-02-02T21:53:06.602Z,100599.00
2019-02-02T21:55:36.069Z,100598.00
2019-02-02T21:58:06.539Z,100609.00
2019-02-02T22:00:41.826Z,100619.00
2019-02-02T22:03:11.607Z,100629.00
2019-02-02T22:05:41.058Z,100633.00
2019-02-02T22:08:11.267Z,100641.00
2019-02-02T22:10:41.115Z,100639.00
2019-02-02T22:13:10.832Z,100647.00
2019-02-02T22:15:40.439Z,100655.00
2019-02-02T22:18:10.039Z,100654.00
2019-02-02T22:20:39.720Z,100664.00
2019-02-02T22:23:09.547Z,100670.00
2019-02-02T22:25:39.133Z,100672.00
2019-02-02T22:28:08.755Z,100682.00
2019-02-02T22:30:38.980Z,100684.00
2019-02-02T22:33:08.431Z,100689.00
2019-02-02T22:35:37.925Z,100686.00
2019-02-02T22:38:07.663Z,100679.00
2019-02-02T22:40:37.309Z,100690.00
2019-02-02T22:43:07.066Z,100687.00
2019-02-02T22:45:36.574Z,100699.00
2019-02-02T22:48:06.679Z,100703.00
2019-02-02T22:50:36.342Z,100718.00
2019-02-02T22:53:06.239Z,100709.00
2019-02-02T22:55:35.788Z,100715.00
2019-02-02T22:58:05.637Z,100712.00
2019-02-02T23:00:50.019Z,100723.00
2019-02-02T23:03:33.396Z,100728.00
2019-02-02T23:06:38.544Z,100735.00
2019-02-02T23:09:37.953Z,100734.00
2019-02-02T23:12:31.687Z,100742.00
2019-02-02T23:15:31.183Z,100755.00
2019-02-02T23:18:00.655Z,100769.00
2019-02-02T23:20:30.140Z,100781.00
2019-02-02T23:22:59.604Z,100792.00
2019-02-02T23:25:29.088Z,100798.00
2019-02-02T23:27:59.135Z,100802.00
2019-02-02T23:30:28.808Z,100802.00
2019-02-02T23:32:58.336Z,100805.00
2019-02-02T23:35:27.871Z,100808.00
2019-02-02T23:37:57.412Z,100807.00
2019-02-02T23:40:26.943Z,100817.00
2019-02-02T23:42:56.295Z,100816.00
2019-02-02T23:45:26.166Z,100824.00
2019-02-02T23:47:55.671Z,100828.00
2019-02-02T23:50:25.088Z,100835.00
2019-02-02T23:52:54.542Z,100844.00
2019-02-02T23:55:24.022Z,100847.00
2019-02-02T23:57:53.437Z,100836.00
